sensor_id;sensor_type;location;lat;lon;timestamp;pressure;altitude;pressure_sealevel;temperature;humidity
34124;BME280;13153;52.316;21.166;2023-05-23T00:00:41;100399.81;;;18.21;53.04
34124;BME280;13153;52.316;21.166;2023-05-23T00:03:07;100391.84;;;18.16;53.25
34124;BME280;13153;52.316;21.166;2023-05-23T00:05:33;100398.06;;;18.13;52.74
34124;BME280;13153;52.316;21.166;2023-05-23T00:08:02;100390.09;;;18.07;52.56
34124;BME280;13153;52.316;21.166;2023-05-23T00:10:28;100395.44;;;18.03;51.63
34124;BME280;13153;52.316;21.166;2023-05-23T00:12:54;100394.56;;;17.95;51.79
34124;BME280;13153;52.316;21.166;2023-05-23T00:15:22;100397.28;;;17.89;52.54
34124;BME280;13153;52.316;21.166;2023-05-23T00:17:49;100395.53;;;17.88;nan
34124;BME280;13153;52.316;21.166;2023-05-23T00:20:15;100396.41;;;17.88;52.55
34124;BME280;13153;52.316;21.166;2023-05-23T00:22:41;100388.44;;;17.85;52.71
34124;BME280;13153;52.316;21.166;2023-05-23T00:25:08;100396.44;;;17.80;52.79
34124;BME280;13153;52.316;21.166;2023-05-23T00:27:35;100388.44;;;17.80;52.56
34124;BME280;13153;52.316;21.166;2023-05-23T00:30:02;100382.22;;;17.81;52.36
34124;BME280;13153;52.316;21.166;2023-05-23T00:32:27;100386.66;;;17.83;52.54
34124;BME280;13153;52.316;21.166;2023-05-23T00:34:53;100387.56;;;17.78;53.11
34124;BME280;13153;52.316;21.166;2023-05-23T00:37:21;100381.34;;;17.76;53.70
34124;BME280;13153;52.316;21.166;2023-05-23T00:39:47;100380.47;;;17.73;53.75
34124;BME280;13153;52.316;21.166;2023-05-23T00:42:13;100380.47;;;17.68;53.89
34124;BME280;13153;52.316;21.166;2023-05-23T00:44:39;100381.38;;;17.67;53.78
34124;BME280;13153;52.316;21.166;2023-05-23T00:47:06;100380.50;;;17.65;53.89
34124;BME280;13153;52.316;21.166;2023-05-23T00:49:34;100380.47;;;17.64;53.77
34124;BME280;13153;52.316;21.166;2023-05-23T00:52:01;100380.47;;;17.62;53.92
34124;BME280;13153;52.316;21.166;2023-05-23T00:54:29;100384.00;;;17.58;53.85
34124;BME280;13153;52.316;21.166;2023-05-23T00:56:58;100380.47;;;17.53;53.74
34124;BME280;13153;52.316;21.166;2023-05-23T00:59:25;100376.06;;;17.47;52.82
34124;BME280;13153;52.316;21.166;2023-05-23T01:01:54;100383.16;;;17.41;52.92
34124;BME280;13153;52.316;21.166;2023-05-23T01:04:21;100373.41;;;17.40;52.83
34124;BME280;13153;52.316;21.166;2023-05-23T01:06:55;100376.94;;;17.39;52.75
34124;BME280;13153;52.316;21.166;2023-05-23T01:09:22;100378.72;;;17.40;53.49
34124;BME280;13153;52.316;21.166;2023-05-23T01:15:17;100386.69;;;17.41;53.67
34124;BME280;13153;52.316;21.166;2023-05-23T01:18:09;100388.50;;;17.32;53.98
34124;BME280;13153;52.316;21.166;2023-05-23T01:21:00;100388.50;;;17.30;54.25
34124;BME280;13153;52.316;21.166;2023-05-23T01:24:18;100386.75;;;17.32;54.17
34124;BME280;13153;52.316;21.166;2023-05-23T01:29:56;100376.09;;;17.32;54.89
34124;BME280;13153;52.316;21.166;2023-05-23T01:32:24;100378.75;;;17.28;54.52
34124;BME280;13153;52.316;21.166;2023-05-23T01:34:53;100375.22;;;17.23;54.54
34124;BME280;13153;52.316;21.166;2023-05-23T01:37:20;100374.34;;;17.19;54.68
34124;BME280;13153;52.316;21.166;2023-05-23T01:39:46;100373.44;;;17.15;54.45
34124;BME280;13153;52.316;21.166;2023-05-23T01:42:12;100377.88;;;17.09;54.33
34124;BME280;13153;52.316;21.166;2023-05-23T01:44:39;100381.44;;;17.00;53.41
34124;BME280;13153;52.316;21.166;2023-05-23T01:47:08;100367.25;;;16.94;53.10
34124;BME280;13153;52.316;21.166;2023-05-23T01:49:36;100366.34;;;16.90;53.38
34124;BME280;13153;52.316;21.166;2023-05-23T01:52:04;100372.56;;;16.86;53.45
34124;BME280;13153;52.316;21.166;2023-05-23T01:54:36;100364.56;;;16.84;53.23
34124;BME280;13153;52.316;21.166;2023-05-23T01:57:03;100361.91;;;16.80;53.71
34124;BME280;13153;52.316;21.166;2023-05-23T01:59:29;100360.13;;;16.77;53.47
34124;BME280;13153;52.316;21.166;2023-05-23T02:01:55;100362.78;;;16.76;53.71
34124;BME280;13153;52.316;21.166;2023-05-23T02:04:21;100368.13;;;16.73;53.73
34124;BME280;13153;52.316;21.166;2023-05-23T02:06:47;100366.38;;;16.70;54.09
34124;BME280;13153;52.316;21.166;2023-05-23T02:09:13;100361.03;;;16.69;53.47
34124;BME280;13153;52.316;21.166;2023-05-23T02:11:39;100363.72;;;16.70;53.70
34124;BME280;13153;52.316;21.166;2023-05-23T02:14:05;100361.94;;;16.66;53.11
34124;BME280;13153;52.316;21.166;2023-05-23T02:16:31;100356.56;;;16.62;53.08
34124;BME280;13153;52.316;21.166;2023-05-23T02:18:57;100355.69;;;16.57;52.87
34124;BME280;13153;52.316;21.166;2023-05-23T02:21:23;100345.91;;;16.48;52.71
34124;BME280;13153;52.316;21.166;2023-05-23T02:23:49;100345.91;;;16.37;52.80
34124;BME280;13153;52.316;21.166;2023-05-23T02:26:15;100352.06;;;16.27;53.52
34124;BME280;13153;52.316;21.166;2023-05-23T02:28:42;100350.28;;;16.17;53.58
34124;BME280;13153;52.316;21.166;2023-05-23T02:31:08;100341.44;;;16.15;53.94
34124;BME280;13153;52.316;21.166;2023-05-23T02:33:34;100347.59;;;16.18;54.31
34124;BME280;13153;52.316;21.166;2023-05-23T02:36:00;100348.50;;;16.24;54.30
34124;BME280;13153;52.316;21.166;2023-05-23T02:38:26;100344.09;;;16.27;54.08
34124;BME280;13153;52.316;21.166;2023-05-23T02:40:52;100343.19;;;16.24;53.86
34124;BME280;13153;52.316;21.166;2023-05-23T02:43:21;100342.31;;;16.22;53.66
34124;BME280;13153;52.316;21.166;2023-05-23T02:45:46;100332.59;;;16.25;53.61
34124;BME280;13153;52.316;21.166;2023-05-23T02:48:12;100327.28;;;16.31;54.05
34124;BME280;13153;52.316;21.166;2023-05-23T02:50:38;100327.31;;;16.39;54.07
34124;BME280;13153;52.316;21.166;2023-05-23T02:53:04;100330.00;;;16.49;53.69
34124;BME280;13153;52.316;21.166;2023-05-23T02:55:29;100325.59;;;16.62;53.54
34124;BME280;13153;52.316;21.166;2023-05-23T02:57:56;100324.72;;;16.75;53.14
34124;BME280;13153;52.316;21.166;2023-05-23T03:00:24;100326.47;;;16.87;52.43
34124;BME280;13153;52.316;21.166;2023-05-23T03:02:50;100328.25;;;16.94;51.99
34124;BME280;13153;52.316;21.166;2023-05-23T03:05:16;100330.91;;;17.06;51.24
34124;BME280;13153;52.316;21.166;2023-05-23T03:07:41;100330.91;;;17.22;51.19
34124;BME280;13153;52.316;21.166;2023-05-23T03:10:08;100323.75;;;17.34;50.73
34124;BME280;13153;52.316;21.166;2023-05-23T03:12:34;100328.16;;;17.49;50.11
34124;BME280;13153;52.316;21.166;2023-05-23T03:15:01;100321.03;;;17.63;49.58
34124;BME280;13153;52.316;21.166;2023-05-23T03:17:27;100313.94;;;17.73;49.12
34124;BME280;13153;52.316;21.166;2023-05-23T03:19:53;100319.16;;;17.93;49.71
34124;BME280;13153;52.316;21.166;2023-05-23T03:22:19;100325.28;;;18.11;48.52
34124;BME280;13153;52.316;21.166;2023-05-23T03:24:45;100313.66;;;18.28;48.20
34124;BME280;13153;52.316;21.166;2023-05-23T03:27:11;100323.31;;;18.47;48.13
34124;BME280;13153;52.316;21.166;2023-05-23T03:29:36;100328.50;;;18.67;47.27
34124;BME280;13153;52.316;21.166;2023-05-23T03:32:02;100335.41;;;18.95;46.99
34124;BME280;13153;52.316;21.166;2023-05-23T03:34:28;100328.88;;;19.25;46.18
34124;BME280;13153;52.316;21.166;2023-05-23T03:36:54;100332.19;;;19.53;45.72
34124;BME280;13153;52.316;21.166;2023-05-23T03:39:20;100334.53;;;19.79;44.84
34124;BME280;13153;52.316;21.166;2023-05-23T03:41:47;100336.91;;;20.05;44.08
34124;BME280;13153;52.316;21.166;2023-05-23T03:44:13;100339.22;;;20.28;43.29
34124;BME280;13153;52.316;21.166;2023-05-23T03:46:39;100333.53;;;20.55;42.94
34124;BME280;13153;52.316;21.166;2023-05-23T03:49:04;100334.88;;;20.82;42.33
34124;BME280;13153;52.316;21.166;2023-05-23T03:51:30;100333.53;;;21.09;42.25
34124;BME280;13153;52.316;21.166;2023-05-23T03:53:56;100343.66;;;21.42;41.19
34124;BME280;13153;52.316;21.166;2023-05-23T03:56:22;100335.03;;;21.73;40.68
34124;BME280;13153;52.316;21.166;2023-05-23T03:58:47;100331.84;;;21.96;39.68
34124;BME280;13153;52.316;21.166;2023-05-23T04:01:13;100320.16;;;22.43;38.93
34124;BME280;13153;52.316;21.166;2023-05-23T04:03:39;100331.75;;;22.82;38.40
34124;BME280;13153;52.316;21.166;2023-05-23T04:06:05;100331.97;;;23.09;37.73
34124;BME280;13153;52.316;21.166;2023-05-23T04:08:31;100329.38;;;23.38;37.38
34124;BME280;13153;52.316;21.166;2023-05-23T04:11:00;100323.34;;;23.64;36.47
34124;BME280;13153;52.316;21.166;2023-05-23T04:13:26;100326.66;;;24.03;36.34
34124;BME280;13153;52.316;21.166;2023-05-23T04:15:53;100319.25;;;24.41;35.30
34124;BME280;13153;52.316;21.166;2023-05-23T04:18:21;100316.34;;;24.76;34.89
34124;BME280;13153;52.316;21.166;2023-05-23T04:20:48;100322.03;;;25.20;34.02
34124;BME280;13153;52.316;21.166;2023-05-23T04:23:13;100317.22;;;25.79;33.24
34124;BME280;13153;52.316;21.166;2023-05-23T04:25:39;100311.66;;;26.30;32.73
34124;BME280;13153;52.316;21.166;2023-05-23T04:28:05;100324.81;;;26.83;32.30
34124;BME280;13153;52.316;21.166;2023-05-23T04:30:31;100319.16;;;27.32;30.94
34124;BME280;13153;52.316;21.166;2023-05-23T04:32:58;100320.56;;;27.62;30.35
34124;BME280;13153;52.316;21.166;2023-05-23T04:35:25;100322.31;;;27.63;30.71
34124;BME280;13153;52.316;21.166;2023-05-23T04:37:56;100317.53;;;27.70;30.63
34124;BME280;13153;52.316;21.166;2023-05-23T04:40:22;100314.75;;;27.90;30.55
34124;BME280;13153;52.316;21.166;2023-05-23T04:42:49;100316.03;;;28.20;30.02
34124;BME280;13153;52.316;21.166;2023-05-23T04:45:16;100314.56;;;28.70;28.76
34124;BME280;13153;52.316;21.166;2023-05-23T04:47:44;100315.94;;;29.49;27.81
34124;BME280;13153;52.316;21.166;2023-05-23T04:50:11;100316.78;;;30.01;27.11
34124;BME280;13153;52.316;21.166;2023-05-23T04:52:36;100315.41;;;30.73;26.25
34124;BME280;13153;52.316;21.166;2023-05-23T04:55:02;100324.09;;;31.25;25.94
34124;BME280;13153;52.316;21.166;2023-05-23T04:57:29;100325.03;;;31.98;24.49
34124;BME280;13153;52.316;21.166;2023-05-23T04:59:54;100325.16;;;32.25;24.15
34124;BME280;13153;52.316;21.166;2023-05-23T05:02:21;100318.91;;;32.93;23.52
34124;BME280;13153;52.316;21.166;2023-05-23T05:04:47;100319.78;;;33.33;23.47
34124;BME280;13153;52.316;21.166;2023-05-23T05:07:13;100318.63;;;33.75;22.49
34124;BME280;13153;52.316;21.166;2023-05-23T05:09:38;100325.13;;;34.61;22.01
34124;BME280;13153;52.316;21.166;2023-05-23T05:12:05;100319.81;;;35.42;20.91
34124;BME280;13153;52.316;21.166;2023-05-23T05:14:31;100322.44;;;35.90;20.69
34124;BME280;13153;52.316;21.166;2023-05-23T05:16:56;100321.69;;;35.99;20.38
34124;BME280;13153;52.316;21.166;2023-05-23T05:19:23;100314.13;;;36.25;20.24
34124;BME280;13153;52.316;21.166;2023-05-23T05:21:49;100317.94;;;36.67;20.13
34124;BME280;13153;52.316;21.166;2023-05-23T05:24:15;100318.59;;;37.03;20.11
34124;BME280;13153;52.316;21.166;2023-05-23T05:26:41;100313.31;;;38.06;19.08
34124;BME280;13153;52.316;21.166;2023-05-23T05:29:07;100309.88;;;39.03;18.42
34124;BME280;13153;52.316;21.166;2023-05-23T05:31:33;100326.81;;;39.47;18.33
34124;BME280;13153;52.316;21.166;2023-05-23T05:34:00;100325.47;;;40.26;17.39
34124;BME280;13153;52.316;21.166;2023-05-23T05:36:27;100323.44;;;40.29;17.34
34124;BME280;13153;52.316;21.166;2023-05-23T05:38:53;100316.09;;;40.47;16.83
34124;BME280;13153;52.316;21.166;2023-05-23T05:41:18;100316.22;;;41.00;16.13
34124;BME280;13153;52.316;21.166;2023-05-23T05:43:44;100325.13;;;41.12;16.15
34124;BME280;13153;52.316;21.166;2023-05-23T05:46:10;100322.41;;;40.39;15.97
34124;BME280;13153;52.316;21.166;2023-05-23T05:48:36;100333.06;;;40.15;16.18
34124;BME280;13153;52.316;21.166;2023-05-23T05:51:02;100324.94;;;40.13;16.28
34124;BME280;13153;52.316;21.166;2023-05-23T05:53:28;100316.50;;;39.78;16.99
34124;BME280;13153;52.316;21.166;2023-05-23T05:55:54;100316.53;;;39.49;17.12
34124;BME280;13153;52.316;21.166;2023-05-23T05:58:20;100313.03;;;39.66;17.27
34124;BME280;13153;52.316;21.166;2023-05-23T06:00:46;100311.25;;;39.84;16.40
34124;BME280;13153;52.316;21.166;2023-05-23T06:03:14;100309.50;;;39.93;16.36
34124;BME280;13153;52.316;21.166;2023-05-23T06:05:40;100307.22;;;39.40;16.35
34124;BME280;13153;52.316;21.166;2023-05-23T06:08:06;100305.25;;;39.13;16.59
34124;BME280;13153;52.316;21.166;2023-05-23T06:10:32;100296.53;;;39.18;16.66
34124;BME280;13153;52.316;21.166;2023-05-23T06:12:59;100310.88;;;39.60;16.40
34124;BME280;13153;52.316;21.166;2023-05-23T06:15:25;100298.84;;;39.51;16.00
34124;BME280;13153;52.316;21.166;2023-05-23T06:17:51;100301.19;;;39.27;16.00
34124;BME280;13153;52.316;21.166;2023-05-23T06:20:17;100301.00;;;39.28;16.28
34124;BME280;13153;52.316;21.166;2023-05-23T06:22:43;100306.34;;;39.69;15.45
34124;BME280;13153;52.316;21.166;2023-05-23T06:25:08;100295.63;;;39.66;15.92
34124;BME280;13153;52.316;21.166;2023-05-23T06:27:34;100297.66;;;39.44;15.37
34124;BME280;13153;52.316;21.166;2023-05-23T06:30:01;100289.25;;;39.65;15.75
34124;BME280;13153;52.316;21.166;2023-05-23T06:32:27;100295.59;;;39.85;15.80
34124;BME280;13153;52.316;21.166;2023-05-23T06:34:53;100288.38;;;39.74;15.14
34124;BME280;13153;52.316;21.166;2023-05-23T06:37:19;100298.00;;;39.98;14.89
34124;BME280;13153;52.316;21.166;2023-05-23T06:39:45;100293.25;;;40.37;14.90
34124;BME280;13153;52.316;21.166;2023-05-23T06:42:10;100280.06;;;40.48;14.86
34124;BME280;13153;52.316;21.166;2023-05-23T06:44:36;100280.25;;;40.92;14.35
34124;BME280;13153;52.316;21.166;2023-05-23T06:47:02;100280.56;;;40.89;14.56
34124;BME280;13153;52.316;21.166;2023-05-23T06:49:27;100279.34;;;41.09;14.98
34124;BME280;13153;52.316;21.166;2023-05-23T06:51:53;100287.34;;;42.00;13.95
34124;BME280;13153;52.316;21.166;2023-05-23T06:54:19;100274.66;;;42.23;13.64
34124;BME280;13153;52.316;21.166;2023-05-23T06:56:45;100271.41;;;41.94;13.17
34124;BME280;13153;52.316;21.166;2023-05-23T06:59:11;100264.97;;;41.85;13.51
34124;BME280;13153;52.316;21.166;2023-05-23T07:01:37;100264.31;;;42.17;13.77
34124;BME280;13153;52.316;21.166;2023-05-23T07:04:02;100263.44;;;42.25;13.30
34124;BME280;13153;52.316;21.166;2023-05-23T07:06:28;100255.06;;;42.42;13.04
34124;BME280;13153;52.316;21.166;2023-05-23T07:08:54;100256.00;;;42.67;12.90
34124;BME280;13153;52.316;21.166;2023-05-23T07:11:22;100255.56;;;43.04;12.45
34124;BME280;13153;52.316;21.166;2023-05-23T07:13:48;100256.41;;;43.05;12.35
34124;BME280;13153;52.316;21.166;2023-05-23T07:16:14;100264.84;;;42.29;12.53
34124;BME280;13153;52.316;21.166;2023-05-23T07:18:40;100242.81;;;41.77;12.78
34124;BME280;13153;52.316;21.166;2023-05-23T07:21:06;100242.47;;;41.80;13.18
34124;BME280;13153;52.316;21.166;2023-05-23T07:23:32;100245.16;;;42.32;13.00
34124;BME280;13153;52.316;21.166;2023-05-23T07:26:01;100242.75;;;42.37;13.48
34124;BME280;13153;52.316;21.166;2023-05-23T07:28:27;100239.56;;;42.15;13.21
34124;BME280;13153;52.316;21.166;2023-05-23T07:30:54;100238.69;;;42.57;12.57
34124;BME280;13153;52.316;21.166;2023-05-23T07:33:21;100243.38;;;42.65;12.44
34124;BME280;13153;52.316;21.166;2023-05-23T07:35:47;100249.75;;;42.57;12.54
34124;BME280;13153;52.316;21.166;2023-05-23T07:38:13;100241.09;;;42.10;12.94
34124;BME280;13153;52.316;21.166;2023-05-23T07:40:39;100238.13;;;42.45;12.37
34124;BME280;13153;52.316;21.166;2023-05-23T07:43:05;100240.31;;;42.84;12.29
34124;BME280;13153;52.316;21.166;2023-05-23T07:45:30;100242.75;;;42.95;12.92
34124;BME280;13153;52.316;21.166;2023-05-23T07:47:56;100238.91;;;42.72;12.31
34124;BME280;13153;52.316;21.166;2023-05-23T07:50:22;100232.94;;;42.42;13.18
34124;BME280;13153;52.316;21.166;2023-05-23T07:52:48;100219.94;;;42.01;13.14
34124;BME280;13153;52.316;21.166;2023-05-23T07:55:15;100216.78;;;41.36;13.38
34124;BME280;13153;52.316;21.166;2023-05-23T07:57:41;100219.94;;;39.70;14.25
34124;BME280;13153;52.316;21.166;2023-05-23T08:00:08;100206.78;;;37.88;15.78
34124;BME280;13153;52.316;21.166;2023-05-23T08:02:34;100204.09;;;38.08;15.78
34124;BME280;13153;52.316;21.166;2023-05-23T08:05:01;100207.69;;;37.68;15.98
34124;BME280;13153;52.316;21.166;2023-05-23T08:07:26;100196.19;;;36.91;15.84
34124;BME280;13153;52.316;21.166;2023-05-23T08:09:52;100192.81;;;35.90;16.94
34124;BME280;13153;52.316;21.166;2023-05-23T08:12:18;100194.16;;;34.58;18.02
34124;BME280;13153;52.316;21.166;2023-05-23T08:14:44;100189.94;;;33.43;18.67
34124;BME280;13153;52.316;21.166;2023-05-23T08:17:11;100187.94;;;32.67;19.47
34124;BME280;13153;52.316;21.166;2023-05-23T08:19:37;100181.75;;;31.83;20.61
34124;BME280;13153;52.316;21.166;2023-05-23T08:22:03;100178.16;;;31.26;21.18
34124;BME280;13153;52.316;21.166;2023-05-23T08:24:30;100182.25;;;31.18;21.44
34124;BME280;13153;52.316;21.166;2023-05-23T08:26:55;100185.28;;;30.98;22.51
34124;BME280;13153;52.316;21.166;2023-05-23T08:29:21;100182.03;;;30.77;21.36
34124;BME280;13153;52.316;21.166;2023-05-23T08:31:47;100182.44;;;30.85;22.50
34124;BME280;13153;52.316;21.166;2023-05-23T08:34:13;100182.63;;;30.37;22.03
34124;BME280;13153;52.316;21.166;2023-05-23T08:36:39;100179.91;;;30.37;23.50
34124;BME280;13153;52.316;21.166;2023-05-23T08:39:07;100179.75;;;30.24;23.22
34124;BME280;13153;52.316;21.166;2023-05-23T08:41:34;100166.34;;;28.73;24.28
34124;BME280;13153;52.316;21.166;2023-05-23T08:44:00;100168.97;;;29.09;24.34
34124;BME280;13153;52.316;21.166;2023-05-23T08:46:27;100171.72;;;29.42;23.29
34124;BME280;13153;52.316;21.166;2023-05-23T08:48:54;100154.72;;;29.39;23.18
34124;BME280;13153;52.316;21.166;2023-05-23T08:51:22;100165.25;;;29.61;24.08
34124;BME280;13153;52.316;21.166;2023-05-23T08:53:50;100167.38;;;29.71;24.42
34124;BME280;13153;52.316;21.166;2023-05-23T08:56:18;100168.94;;;29.44;23.32
34124;BME280;13153;52.316;21.166;2023-05-23T08:58:45;100173.66;;;29.06;24.60
34124;BME280;13153;52.316;21.166;2023-05-23T09:01:13;100168.38;;;29.20;24.01
34124;BME280;13153;52.316;21.166;2023-05-23T09:03:40;100151.81;;;29.09;23.26
34124;BME280;13153;52.316;21.166;2023-05-23T09:06:09;100157.34;;;28.90;23.87
34124;BME280;13153;52.316;21.166;2023-05-23T09:08:36;100149.78;;;28.79;22.91
34124;BME280;13153;52.316;21.166;2023-05-23T09:11:04;100147.38;;;28.90;24.07
34124;BME280;13153;52.316;21.166;2023-05-23T09:13:32;100160.69;;;28.78;23.24
34124;BME280;13153;52.316;21.166;2023-05-23T09:16:03;100158.59;;;28.48;23.67
34124;BME280;13153;52.316;21.166;2023-05-23T09:18:40;100161.44;;;28.45;23.41
34124;BME280;13153;52.316;21.166;2023-05-23T09:21:11;100146.78;;;27.96;23.46
34124;BME280;13153;52.316;21.166;2023-05-23T09:23:39;100146.47;;;28.02;23.83
34124;BME280;13153;52.316;21.166;2023-05-23T09:26:08;100134.22;;;28.48;23.29
34124;BME280;13153;52.316;21.166;2023-05-23T09:28:36;100138.22;;;28.76;24.11
34124;BME280;13153;52.316;21.166;2023-05-23T09:31:04;100157.78;;;28.82;24.63
34124;BME280;13153;52.316;21.166;2023-05-23T09:33:46;100148.06;;;28.06;23.91
34124;BME280;13153;52.316;21.166;2023-05-23T09:36:13;100142.97;;;28.36;24.42
34124;BME280;13153;52.316;21.166;2023-05-23T09:38:44;100144.56;;;28.40;25.29
34124;BME280;13153;52.316;21.166;2023-05-23T09:41:11;100166.00;;;28.45;24.69
34124;BME280;13153;52.316;21.166;2023-05-23T09:43:51;100150.72;;;28.26;24.67
34124;BME280;13153;52.316;21.166;2023-05-23T09:46:19;100143.03;;;28.35;24.70
34124;BME280;13153;52.316;21.166;2023-05-23T09:48:50;100144.94;;;27.97;24.31
34124;BME280;13153;52.316;21.166;2023-05-23T09:51:22;100131.25;;;28.36;24.32
34124;BME280;13153;52.316;21.166;2023-05-23T09:53:49;100142.66;;;28.42;24.05
34124;BME280;13153;52.316;21.166;2023-05-23T09:56:19;100128.56;;;28.53;24.76
34124;BME280;13153;52.316;21.166;2023-05-23T09:58:49;100135.50;;;28.58;25.01
34124;BME280;13153;52.316;21.166;2023-05-23T10:01:15;100133.28;;;28.13;24.75
34124;BME280;13153;52.316;21.166;2023-05-23T10:03:52;100133.19;;;27.79;25.37
34124;BME280;13153;52.316;21.166;2023-05-23T10:09:02;100122.00;;;27.86;25.38
34124;BME280;13153;52.316;21.166;2023-05-23T10:14:04;100127.44;;;27.10;25.98
34124;BME280;13153;52.316;21.166;2023-05-23T10:16:54;100118.84;;;27.39;25.23
34124;BME280;13153;52.316;21.166;2023-05-23T10:19:42;100144.63;;;27.27;24.96
34124;BME280;13153;52.316;21.166;2023-05-23T10:22:11;100124.41;;;27.74;24.85
34124;BME280;13153;52.316;21.166;2023-05-23T10:24:39;100119.72;;;27.96;25.82
34124;BME280;13153;52.316;21.166;2023-05-23T10:27:06;100120.00;;;28.09;23.64
34124;BME280;13153;52.316;21.166;2023-05-23T10:29:32;100119.94;;;27.91;24.37
34124;BME280;13153;52.316;21.166;2023-05-23T10:31:59;100117.25;;;27.91;24.70
34124;BME280;13153;52.316;21.166;2023-05-23T10:34:39;100119.28;;;28.05;24.70
34124;BME280;13153;52.316;21.166;2023-05-23T10:37:11;100131.84;;;27.70;23.76
34124;BME280;13153;52.316;21.166;2023-05-23T10:40:26;100132.31;;;27.78;23.90
34124;BME280;13153;52.316;21.166;2023-05-23T10:43:07;100125.06;;;27.41;24.13
34124;BME280;13153;52.316;21.166;2023-05-23T10:45:44;100122.34;;;27.41;23.76
34124;BME280;13153;52.316;21.166;2023-05-23T10:48:34;100112.19;;;27.67;24.13
34124;BME280;13153;52.316;21.166;2023-05-23T10:51:11;100108.63;;;27.83;23.82
34124;BME280;13153;52.316;21.166;2023-05-23T10:53:53;100125.06;;;27.79;24.18
34124;BME280;13153;52.316;21.166;2023-05-23T10:56:22;100113.59;;;27.74;23.83
34124;BME280;13153;52.316;21.166;2023-05-23T10:58:53;100121.41;;;27.80;23.88
34124;BME280;13153;52.316;21.166;2023-05-23T11:01:20;100117.50;;;27.68;23.93
34124;BME280;13153;52.316;21.166;2023-05-23T11:06:43;100119.88;;;27.74;23.53
34124;BME280;13153;52.316;21.166;2023-05-23T11:09:14;100099.97;;;27.94;24.85
34124;BME280;13153;52.316;21.166;2023-05-23T11:12:06;100103.00;;;27.88;24.06
34124;BME280;13153;52.316;21.166;2023-05-23T11:19:38;100096.28;;;28.14;24.07
34124;BME280;13153;52.316;21.166;2023-05-23T11:22:08;100099.97;;;27.94;24.21
34124;BME280;13153;52.316;21.166;2023-05-23T11:24:53;100084.38;;;28.35;24.54
34124;BME280;13153;52.316;21.166;2023-05-23T11:27:32;100092.47;;;28.18;24.59
34124;BME280;13153;52.316;21.166;2023-05-23T11:30:15;100101.34;;;27.67;24.22
34124;BME280;13153;52.316;21.166;2023-05-23T11:32:50;100095.03;;;27.85;24.30
34124;BME280;13153;52.316;21.166;2023-05-23T11:35:17;100089.91;;;27.79;24.50
34124;BME280;13153;52.316;21.166;2023-05-23T11:37:43;100087.84;;;28.03;23.96
34124;BME280;13153;52.316;21.166;2023-05-23T11:40:33;100084.25;;;28.02;25.35
34124;BME280;13153;52.316;21.166;2023-05-23T11:43:06;100082.28;;;27.70;24.46
34124;BME280;13153;52.316;21.166;2023-05-23T11:45:34;100077.19;;;27.81;24.48
34124;BME280;13153;52.316;21.166;2023-05-23T11:48:08;100076.38;;;27.98;24.82
34124;BME280;13153;52.316;21.166;2023-05-23T11:50:52;100078.78;;;28.04;25.09
34124;BME280;13153;52.316;21.166;2023-05-23T11:53:21;100074.63;;;27.60;24.73
34124;BME280;13153;52.316;21.166;2023-05-23T11:55:51;100063.78;;;27.42;25.25
34124;BME280;13153;52.316;21.166;2023-05-23T11:58:25;100054.59;;;27.65;24.80
34124;BME280;13153;52.316;21.166;2023-05-23T12:00:51;100070.09;;;27.61;25.28
34124;BME280;13153;52.316;21.166;2023-05-23T12:03:17;100063.03;;;27.76;24.57
34124;BME280;13153;52.316;21.166;2023-05-23T12:05:43;100070.97;;;27.98;24.79
34124;BME280;13153;52.316;21.166;2023-05-23T12:08:13;100064.25;;;27.87;24.62
34124;BME280;13153;52.316;21.166;2023-05-23T12:11:00;100063.34;;;28.06;24.39
34124;BME280;13153;52.316;21.166;2023-05-23T12:13:29;100063.88;;;27.95;24.68
34124;BME280;13153;52.316;21.166;2023-05-23T12:15:58;100060.56;;;28.07;25.10
34124;BME280;13153;52.316;21.166;2023-05-23T12:18:29;100061.16;;;27.95;24.71
34124;BME280;13153;52.316;21.166;2023-05-23T12:21:02;100063.97;;;28.11;25.32
34124;BME280;13153;52.316;21.166;2023-05-23T12:23:31;100066.91;;;28.25;25.24
34124;BME280;13153;52.316;21.166;2023-05-23T12:25:57;100056.75;;;28.46;25.20
34124;BME280;13153;52.316;21.166;2023-05-23T12:28:41;100042.00;;;28.69;24.29
34124;BME280;13153;52.316;21.166;2023-05-23T12:31:18;100051.00;;;28.69;25.04
34124;BME280;13153;52.316;21.166;2023-05-23T12:33:46;100040.81;;;28.57;24.78
34124;BME280;13153;52.316;21.166;2023-05-23T12:36:13;100033.50;;;28.42;24.09
34124;BME280;13153;52.316;21.166;2023-05-23T12:38:41;100047.03;;;28.59;25.23
34124;BME280;13153;52.316;21.166;2023-05-23T12:41:18;100044.50;;;28.56;24.61
34124;BME280;13153;52.316;21.166;2023-05-23T12:43:55;100046.72;;;28.48;24.76
34124;BME280;13153;52.316;21.166;2023-05-23T12:46:23;100048.16;;;28.20;24.79
34124;BME280;13153;52.316;21.166;2023-05-23T12:48:50;100048.78;;;28.08;25.04
34124;BME280;13153;52.316;21.166;2023-05-23T12:51:16;100039.16;;;28.20;24.82
34124;BME280;13153;52.316;21.166;2023-05-23T12:53:43;100038.16;;;27.86;24.90
34124;BME280;13153;52.316;21.166;2023-05-23T12:56:08;100039.13;;;28.21;24.77
34124;BME280;13153;52.316;21.166;2023-05-23T12:58:34;100037.28;;;28.22;25.14
34124;BME280;13153;52.316;21.166;2023-05-23T13:01:01;100035.94;;;27.94;24.63
34124;BME280;13153;52.316;21.166;2023-05-23T13:03:28;100027.75;;;27.96;23.11
34124;BME280;13153;52.316;21.166;2023-05-23T13:05:58;100017.41;;;27.87;24.06